Time;durP1;ratioP1;P1;durP2;ratioP2;P2;SDS_P1;SDS_P2;PMS_P1;PMS_P2;Temp;Humidity;BMP_temperature;BMP_pressure;BME280_temperature;BME280_humidity;BME280_pressure;Samples;Min_cycle;Max_cycle;Signal;HPM_P1;HPM_P2
2022/05/15 00:02:35;;;;;;;6.43;2.60;;;17.90;49.70;;;;;;5059762;28;20048;-79
2022/05/15 00:05:01;;;;;;;6.70;2.83;;;17.90;49.70;;;;;;5054472;28;20039;-79
2022/05/15 00:07:27;;;;;;;7.35;2.63;;;17.80;49.80;;;;;;5076505;28;20247;-79
2022/05/15 00:09:53;;;;;;;6.70;3.30;;;17.80;50.00;;;;;;5060899;28;21000;-79
2022/05/15 00:12:20;;;;;;;5.50;2.72;;;17.80;50.10;;;;;;5047769;28;20108;-80
2022/05/15 00:14:47;;;;;;;5.57;2.60;;;17.70;50.10;;;;;;5056937;28;20208;-79
2022/05/15 00:17:14;;;;;;;4.13;2.50;;;17.70;50.20;;;;;;5050811;28;20481;-80
2022/05/15 00:19:40;;;;;;;5.60;2.63;;;17.60;50.30;;;;;;5057797;28;20143;-79
2022/05/15 00:22:07;;;;;;;5.68;2.63;;;17.60;50.40;;;;;;5048971;28;21079;-79
2022/05/15 00:24:34;;;;;;;5.85;2.60;;;17.60;50.40;;;;;;5061077;28;20033;-79
2022/05/15 00:26:59;;;;;;;5.78;2.50;;;17.50;50.50;;;;;;5052083;28;20063;-79
2022/05/15 00:29:25;;;;;;;5.37;2.53;;;17.50;50.60;;;;;;5074200;28;20149;-79
2022/05/15 00:31:51;;;;;;;6.25;2.58;;;17.40;50.70;;;;;;5078948;28;20557;-80
2022/05/15 00:34:17;;;;;;;4.60;2.72;;;17.40;50.80;;;;;;5044318;28;20465;-79
2022/05/15 00:36:42;;;;;;;5.73;2.53;;;17.30;50.80;;;;;;5061556;28;20028;-79
2022/05/15 00:39:08;;;;;;;6.60;2.80;;;17.30;50.90;;;;;;5062740;28;20044;-79
2022/05/15 00:41:37;;;;;;;8.32;2.53;;;17.20;51.00;;;;;;5047239;28;20031;-79
2022/05/15 00:44:03;;;;;;;4.85;2.63;;;17.20;51.10;;;;;;5081771;28;20290;-79
2022/05/15 00:46:32;;;;;;;6.40;2.80;;;17.20;51.80;;;;;;5053930;28;20119;-79
2022/05/15 00:49:00;;;;;;;6.53;2.45;;;17.10;51.40;;;;;;5055021;28;20068;-79
2022/05/15 00:51:47;;;;;;;6.63;2.60;;;17.10;51.50;;;;;;5080979;28;20037;-79
2022/05/15 00:54:16;;;;;;;5.95;2.38;;;17.00;52.10;;;;;;5079712;28;20074;-79
2022/05/15 00:56:48;;;;;;;7.72;2.90;;;17.00;51.80;;;;;;5074578;28;20067;-79
2022/05/15 00:59:17;;;;;;;7.38;2.60;;;16.90;52.10;;;;;;5067529;28;20473;-79
2022/05/15 01:01:43;;;;;;;5.78;2.80;;;16.90;51.80;;;;;;5061665;28;20404;-81
2022/05/15 01:04:09;;;;;;;4.93;2.57;;;16.80;51.70;;;;;;5032998;28;20047;-81
2022/05/15 01:06:36;;;;;;;8.00;2.60;;;16.80;51.70;;;;;;5060086;28;20043;-81
2022/05/15 01:09:04;;;;;;;6.10;2.63;;;16.80;51.90;;;;;;5058454;28;20036;-81
2022/05/15 01:11:32;;;;;;;6.72;2.55;;;16.70;52.00;;;;;;5069235;28;20097;-81
2022/05/15 01:13:59;;;;;;;4.65;2.50;;;16.70;52.10;;;;;;5025624;28;20033;-81
2022/05/15 01:16:25;;;;;;;6.83;2.67;;;16.60;52.00;;;;;;5067639;28;20056;-81
2022/05/15 01:18:56;;;;;;;6.15;2.60;;;16.60;52.30;;;;;;5037371;28;20098;-80
2022/05/15 01:21:35;;;;;;;5.15;2.75;;;16.50;52.70;;;;;;5045064;28;20414;-81
2022/05/15 01:24:04;;;;;;;5.88;2.55;;;16.50;53.70;;;;;;5039032;28;20287;-81
2022/05/15 01:26:30;;;;;;;5.70;2.75;;;16.50;52.60;;;;;;5080295;28;20063;-81
2022/05/15 01:28:57;;;;;;;7.17;2.50;;;16.40;52.40;;;;;;5034606;28;20335;-80
2022/05/15 01:31:24;;;;;;;4.97;2.38;;;16.40;53.10;;;;;;5048293;28;20396;-81
2022/05/15 01:33:51;;;;;;;5.57;2.58;;;16.30;52.40;;;;;;5047336;28;20670;-81
2022/05/15 01:36:20;;;;;;;4.95;2.67;;;16.40;52.60;;;;;;5060322;28;20024;-81
2022/05/15 01:38:46;;;;;;;5.95;2.42;;;16.30;52.70;;;;;;5063364;28;20035;-81
2022/05/15 01:41:12;;;;;;;6.30;2.60;;;16.30;52.70;;;;;;5055589;28;20040;-81
2022/05/15 01:43:40;;;;;;;5.47;2.53;;;16.20;52.70;;;;;;5039863;28;20025;-81
2022/05/15 01:46:06;;;;;;;4.30;2.38;;;16.20;52.90;;;;;;5034624;28;20045;-81
2022/05/15 01:48:32;;;;;;;4.70;2.42;;;16.10;52.90;;;;;;5052927;28;20024;-80
2022/05/15 01:50:58;;;;;;;5.55;2.38;;;16.10;53.00;;;;;;5025782;28;20314;-80
2022/05/15 01:53:24;;;;;;;5.30;2.33;;;16.00;53.00;;;;;;5053328;28;20037;-81
2022/05/15 01:55:50;;;;;;;6.38;2.53;;;16.00;53.00;;;;;;5044996;28;21043;-81
2022/05/15 01:58:16;;;;;;;7.53;2.50;;;15.90;53.00;;;;;;5058546;28;20035;-81
2022/05/15 02:00:41;;;;;;;7.35;2.72;;;15.90;53.10;;;;;;5050598;28;20731;-80
2022/05/15 02:03:07;;;;;;;4.13;2.50;;;15.90;53.20;;;;;;5063289;28;20113;-81
2022/05/15 02:05:33;;;;;;;5.47;2.60;;;15.80;53.30;;;;;;5026173;28;20182;-81
2022/05/15 02:07:58;;;;;;;4.78;2.33;;;15.70;53.40;;;;;;5063833;28;20078;-81
2022/05/15 02:10:24;;;;;;;4.20;2.07;;;15.60;53.40;;;;;;5079841;28;20033;-81
2022/05/15 02:12:50;;;;;;;5.03;2.67;;;15.60;53.50;;;;;;5038814;28;20054;-81
2022/05/15 02:15:15;;;;;;;5.85;2.50;;;15.50;53.50;;;;;;5032153;28;20044;-80
2022/05/15 02:17:41;;;;;;;4.90;2.23;;;15.50;53.60;;;;;;5074335;28;20388;-81
2022/05/15 02:20:10;;;;;;;6.25;2.50;;;15.40;53.70;;;;;;5030972;28;20036;-80
2022/05/15 02:22:38;;;;;;;3.85;2.20;;;15.40;53.80;;;;;;5056271;28;20118;-81
2022/05/15 02:25:05;;;;;;;4.65;2.38;;;15.30;53.80;;;;;;5029954;28;20083;-81
2022/05/15 02:27:31;;;;;;;3.40;2.10;;;15.20;53.90;;;;;;5042848;28;20397;-80
2022/05/15 02:29:56;;;;;;;4.47;2.28;;;15.20;53.90;;;;;;5038369;28;20044;-81
2022/05/15 02:32:22;;;;;;;4.63;2.37;;;15.10;54.00;;;;;;5056692;28;20424;-80
2022/05/15 02:34:48;;;;;;;5.05;2.08;;;15.10;54.10;;;;;;5045461;28;20039;-81
2022/05/15 02:37:13;;;;;;;3.83;2.23;;;15.00;54.20;;;;;;5035874;28;20826;-80
2022/05/15 02:39:39;;;;;;;4.93;2.30;;;15.00;54.30;;;;;;5038178;28;20025;-80
2022/05/15 02:42:05;;;;;;;4.77;2.33;;;14.90;54.30;;;;;;5059717;28;20160;-80
2022/05/15 02:44:30;;;;;;;4.80;2.22;;;14.80;54.30;;;;;;5054793;28;20032;-80
2022/05/15 02:46:56;;;;;;;5.03;2.30;;;14.80;54.40;;;;;;5034388;28;20032;-80
2022/05/15 02:52:07;;;;;;;3.92;2.25;;;14.70;54.50;;;;;;5031853;28;20047;-80
2022/05/15 02:54:33;;;;;;;4.70;2.22;;;14.70;54.60;;;;;;5046713;28;20039;-80
2022/05/15 02:56:58;;;;;;;4.57;2.37;;;14.60;54.60;;;;;;5045092;28;20024;-82
2022/05/15 02:59:24;;;;;;;5.88;2.53;;;14.50;54.90;;;;;;5020365;28;20232;-81
2022/05/15 03:01:50;;;;;;;4.23;2.10;;;14.50;55.00;;;;;;5036953;28;20028;-80
2022/05/15 03:04:15;;;;;;;6.63;2.55;;;14.40;55.00;;;;;;5033894;28;21178;-80
2022/05/15 03:06:41;;;;;;;4.83;2.70;;;14.40;55.20;;;;;;5041638;28;20528;-81
2022/05/15 03:09:07;;;;;;;4.45;2.40;;;14.40;55.40;;;;;;5018375;28;20036;-80
2022/05/15 03:11:32;;;;;;;4.70;2.43;;;14.30;55.50;;;;;;5053408;28;20100;-80
2022/05/15 03:13:58;;;;;;;5.17;2.40;;;14.20;55.20;;;;;;5046611;28;20664;-81
2022/05/15 03:16:28;;;;;;;3.75;2.38;;;14.20;55.40;;;;;;5034391;28;20048;-81
2022/05/15 03:18:53;;;;;;;4.68;2.65;;;14.20;55.40;;;;;;5066789;28;20124;-81
2022/05/15 03:21:31;;;;;;;5.28;2.50;;;14.10;55.60;;;;;;5041118;28;20363;-81
2022/05/15 03:24:07;;;;;;;3.97;2.50;;;14.10;55.60;;;;;;5056307;28;20673;-81
2022/05/15 03:26:35;;;;;;;4.55;2.70;;;14.00;55.60;;;;;;5064061;28;20059;-81
2022/05/15 03:29:02;;;;;;;4.03;2.38;;;14.00;56.00;;;;;;5036437;28;20040;-80
2022/05/15 03:31:28;;;;;;;4.32;2.42;;;14.00;55.90;;;;;;5041068;28;20405;-81
2022/05/15 03:33:53;;;;;;;4.83;2.63;;;13.90;55.80;;;;;;5036193;28;20024;-80
2022/05/15 03:36:19;;;;;;;3.67;2.20;;;13.90;56.50;;;;;;5065326;28;20094;-80
2022/05/15 03:38:46;;;;;;;4.43;2.30;;;13.90;56.10;;;;;;5042665;28;20028;-80
2022/05/15 03:41:13;;;;;;;3.50;2.28;;;13.80;57.00;;;;;;5063820;28;20036;-80
2022/05/15 03:43:38;;;;;;;4.10;2.25;;;13.80;56.30;;;;;;5027341;28;20736;-80
2022/05/15 03:46:06;;;;;;;3.92;2.10;;;13.80;56.20;;;;;;5059995;28;20044;-80
2022/05/15 03:48:32;;;;;;;4.40;2.17;;;13.80;56.40;;;;;;5051845;28;20496;-80
2022/05/15 03:50:59;;;;;;;4.53;2.40;;;13.70;56.30;;;;;;5036001;28;20040;-80
2022/05/15 03:53:26;;;;;;;4.05;2.40;;;13.70;56.50;;;;;;5038640;28;20571;-80
2022/05/15 03:55:55;;;;;;;5.78;2.53;;;13.70;56.50;;;;;;5074437;28;20029;-80
2022/05/15 03:58:22;;;;;;;3.63;2.35;;;13.70;56.60;;;;;;5048676;28;20032;-80
2022/05/15 04:00:48;;;;;;;3.83;2.37;;;13.70;56.80;;;;;;5063882;28;20138;-80
2022/05/15 04:03:14;;;;;;;4.32;2.38;;;13.70;56.80;;;;;;5040822;28;20052;-80
2022/05/15 04:05:39;;;;;;;4.40;2.20;;;13.60;56.80;;;;;;5025141;28;20068;-80
2022/05/15 04:08:05;;;;;;;4.13;2.20;;;13.60;56.80;;;;;;5041811;28;20043;-80
2022/05/15 04:10:31;;;;;;;5.45;2.13;;;13.60;56.80;;;;;;5043849;28;20033;-80
2022/05/15 04:12:56;;;;;;;4.07;2.23;;;13.60;56.80;;;;;;5043668;28;20032;-80
2022/05/15 04:15:22;;;;;;;3.72;2.35;;;13.60;56.90;;;;;;5052846;28;20060;-80
2022/05/15 04:17:50;;;;;;;5.10;2.23;;;13.60;57.00;;;;;;5068114;28;20555;-80
2022/05/15 04:20:21;;;;;;;3.40;2.10;;;13.60;57.10;;;;;;5057708;28;20103;-80
2022/05/15 04:22:47;;;;;;;3.75;2.05;;;13.50;57.20;;;;;;5050208;28;20249;-80
2022/05/15 04:25:13;;;;;;;4.23;2.23;;;13.50;57.10;;;;;;5029344;28;20045;-80
2022/05/15 04:27:40;;;;;;;3.85;2.20;;;13.50;57.30;;;;;;5060911;28;20041;-80
2022/05/15 04:30:07;;;;;;;4.57;2.33;;;13.60;57.40;;;;;;5077408;28;20032;-80
2022/05/15 04:32:33;;;;;;;4.55;2.40;;;13.50;57.40;;;;;;5049717;28;20032;-80
2022/05/15 04:34:59;;;;;;;3.30;2.00;;;13.50;57.40;;;;;;5047000;28;20039;-80
2022/05/15 04:37:24;;;;;;;3.28;2.22;;;13.50;57.50;;;;;;5043117;28;20068;-80
2022/05/15 04:39:50;;;;;;;3.03;2.20;;;13.50;57.60;;;;;;5065262;28;20289;-80
2022/05/15 04:42:16;;;;;;;3.30;2.08;;;13.50;57.70;;;;;;5046072;28;20036;-80
2022/05/15 04:44:42;;;;;;;4.10;2.43;;;13.50;57.70;;;;;;5055871;28;20495;-80
2022/05/15 04:47:07;;;;;;;4.40;2.20;;;13.50;57.80;;;;;;5053673;28;20548;-80
2022/05/15 04:49:33;;;;;;;3.20;2.13;;;13.50;57.90;;;;;;5037236;28;23864;-80
2022/05/15 04:51:59;;;;;;;3.83;2.22;;;13.60;58.10;;;;;;5064590;28;20059;-80
2022/05/15 04:54:24;;;;;;;4.63;2.30;;;13.60;58.30;;;;;;5043202;28;20021;-80
2022/05/15 04:56:50;;;;;;;3.67;2.03;;;13.60;58.30;;;;;;5049472;28;20408;-80
2022/05/15 04:59:16;;;;;;;4.30;2.43;;;13.70;58.50;;;;;;5019319;28;20044;-80
2022/05/15 05:01:41;;;;;;;4.28;2.33;;;13.70;58.60;;;;;;5042219;28;20024;-80
2022/05/15 05:04:07;;;;;;;3.90;2.30;;;13.70;58.70;;;;;;5074661;28;20051;-80
2022/05/15 05:06:33;;;;;;;4.20;2.10;;;13.80;58.90;;;;;;5024821;28;20887;-80
2022/05/15 05:08:58;;;;;;;4.47;2.33;;;13.80;58.90;;;;;;5044000;28;20044;-81
2022/05/15 05:11:24;;;;;;;5.13;2.37;;;13.90;59.10;;;;;;5050625;28;20283;-81
2022/05/15 05:13:50;;;;;;;5.45;2.40;;;13.90;59.30;;;;;;5039582;28;20044;-80
2022/05/15 05:16:16;;;;;;;5.30;2.30;;;14.00;59.30;;;;;;5035133;28;20246;-81
2022/05/15 05:18:43;;;;;;;4.57;2.50;;;14.10;59.60;;;;;;5068277;28;20471;-81
2022/05/15 05:21:09;;;;;;;4.93;2.57;;;14.10;59.70;;;;;;5044005;28;20044;-81
2022/05/15 05:23:35;;;;;;;6.40;2.50;;;14.20;59.70;;;;;;5050957;28;20115;-81
2022/05/15 05:26:01;;;;;;;7.30;2.90;;;14.30;59.80;;;;;;5067660;28;20032;-81
2022/05/15 05:28:27;;;;;;;7.20;2.83;;;14.30;59.80;;;;;;5021924;28;20340;-81
2022/05/15 05:30:54;;;;;;;4.88;2.45;;;14.40;60.00;;;;;;5039242;28;20343;-81
2022/05/15 05:33:21;;;;;;;5.70;2.58;;;14.40;60.00;;;;;;5056043;28;20032;-81
2022/05/15 05:35:48;;;;;;;5.23;2.77;;;14.50;59.90;;;;;;5050194;28;20081;-81
2022/05/15 05:38:14;;;;;;;6.95;2.80;;;14.60;60.00;;;;;;5042601;28;20028;-81
2022/05/15 05:40:39;;;;;;;6.45;3.03;;;14.70;60.10;;;;;;5039104;28;20024;-81
2022/05/15 05:43:05;;;;;;;4.97;2.67;;;14.70;60.10;;;;;;5045574;28;20046;-81
2022/05/15 05:45:31;;;;;;;6.20;2.80;;;14.80;60.10;;;;;;5035796;28;20021;-81
2022/05/15 05:47:57;;;;;;;6.37;3.03;;;14.80;60.30;;;;;;5078537;28;20072;-81
2022/05/15 05:50:25;;;;;;;5.38;2.70;;;14.90;60.30;;;;;;5046133;28;20269;-81
2022/05/15 05:52:51;;;;;;;7.28;3.20;;;14.90;60.40;;;;;;5037749;28;20041;-81
2022/05/15 05:55:19;;;;;;;5.82;3.03;;;15.10;60.40;;;;;;5036242;28;20448;-81
2022/05/15 05:57:45;;;;;;;5.97;3.05;;;15.10;60.60;;;;;;5078931;28;20217;-81
2022/05/15 06:00:18;;;;;;;6.73;3.30;;;15.20;60.40;;;;;;5029307;28;20037;-81
2022/05/15 06:02:44;;;;;;;5.82;2.95;;;15.30;60.60;;;;;;5055166;28;20051;-81
2022/05/15 06:05:10;;;;;;;6.05;3.20;;;15.40;60.40;;;;;;5036842;28;20029;-81
2022/05/15 06:07:37;;;;;;;7.47;3.27;;;15.50;60.40;;;;;;5045515;28;20680;-81
2022/05/15 06:10:05;;;;;;;6.00;3.10;;;15.60;60.50;;;;;;5043540;28;20041;-81
2022/05/15 06:12:30;;;;;;;8.13;3.22;;;15.60;60.50;;;;;;5037786;28;20036;-82
2022/05/15 06:14:56;;;;;;;8.53;4.10;;;15.70;60.40;;;;;;5040723;28;20037;-81
2022/05/15 06:17:24;;;;;;;6.88;3.58;;;15.80;60.40;;;;;;5056167;28;20413;-82
2022/05/15 06:19:50;;;;;;;5.50;3.53;;;16.00;60.70;;;;;;5055919;28;20031;-82
2022/05/15 06:22:16;;;;;;;10.40;4.07;;;16.00;60.60;;;;;;5045738;28;20033;-81
2022/05/15 06:24:42;;;;;;;7.60;3.67;;;16.10;60.70;;;;;;5033744;28;20332;-82
2022/05/15 06:27:09;;;;;;;7.72;4.00;;;16.30;60.80;;;;;;5059811;28;20111;-81
2022/05/15 06:29:36;;;;;;;7.90;3.72;;;16.40;60.70;;;;;;5024968;28;20838;-81
2022/05/15 06:32:02;;;;;;;9.50;4.55;;;16.50;60.80;;;;;;5043517;28;20116;-81
2022/05/15 06:34:28;;;;;;;7.10;4.00;;;16.60;60.60;;;;;;5064139;28;20513;-81
2022/05/15 06:36:53;;;;;;;7.35;3.85;;;16.70;60.60;;;;;;5049400;28;20284;-82
2022/05/15 06:39:19;;;;;;;9.33;3.80;;;16.80;60.70;;;;;;5029674;28;20043;-82
2022/05/15 06:41:49;;;;;;;8.05;3.55;;;17.00;60.70;;;;;;5054976;28;20044;-82
2022/05/15 06:44:19;;;;;;;6.28;3.90;;;17.10;60.60;;;;;;5052179;28;20492;-82
2022/05/15 06:46:46;;;;;;;8.33;3.70;;;17.20;60.60;;;;;;5020891;28;20033;-81
2022/05/15 06:49:12;;;;;;;7.60;3.65;;;17.30;60.70;;;;;;5051775;28;20140;-81
2022/05/15 06:51:38;;;;;;;7.60;3.80;;;17.50;60.70;;;;;;5043947;28;20028;-82
2022/05/15 06:54:04;;;;;;;7.53;3.90;;;17.60;60.70;;;;;;5077504;28;20058;-82
2022/05/15 06:59:13;;;;;;;8.93;3.88;;;17.90;60.60;;;;;;5065942;28;20452;-82
2022/05/15 07:01:39;;;;;;;7.60;4.00;;;18.00;60.30;;;;;;5034392;28;20041;-82
2022/05/15 07:04:05;;;;;;;8.20;3.80;;;18.10;60.10;;;;;;5050550;28;20029;-82
2022/05/15 07:06:31;;;;;;;7.60;4.13;;;18.30;60.00;;;;;;5058940;28;20034;-82
2022/05/15 07:08:57;;;;;;;7.07;3.83;;;18.40;59.90;;;;;;5063313;28;20063;-82
2022/05/15 07:11:23;;;;;;;7.63;3.78;;;18.50;59.90;;;;;;5052596;28;20059;-82
2022/05/15 07:13:48;;;;;;;8.05;3.83;;;18.60;60.50;;;;;;5055937;28;20475;-81
2022/05/15 07:16:14;;;;;;;6.17;3.67;;;18.70;59.70;;;;;;5023010;28;20057;-81
2022/05/15 07:18:41;;;;;;;5.65;3.50;;;18.80;59.60;;;;;;5059693;28;20024;-81
2022/05/15 07:21:07;;;;;;;6.47;3.42;;;18.90;59.60;;;;;;5061747;28;20507;-82
2022/05/15 07:23:32;;;;;;;5.13;3.37;;;19.10;59.70;;;;;;5064756;28;20266;-81
2022/05/15 07:25:58;;;;;;;5.20;3.40;;;19.20;59.60;;;;;;5031391;28;20751;-81
2022/05/15 07:28:23;;;;;;;8.27;3.43;;;19.30;59.40;;;;;;5047527;28;20037;-82
2022/05/15 07:30:50;;;;;;;7.65;3.47;;;19.50;59.50;;;;;;5038524;28;20040;-82
2022/05/15 07:33:25;;;;;;;5.25;3.10;;;19.70;59.50;;;;;;5034372;28;20106;-82
2022/05/15 07:35:51;;;;;;;6.03;3.07;;;19.80;59.50;;;;;;5064683;28;20126;-82
2022/05/15 07:38:17;;;;;;;6.00;3.15;;;20.00;59.40;;;;;;5055787;28;20465;-82
2022/05/15 07:40:43;;;;;;;5.97;3.45;;;20.10;59.30;;;;;;5029854;28;21556;-82
2022/05/15 07:43:11;;;;;;;6.85;3.78;;;20.30;59.30;;;;;;5044755;28;20577;-82
2022/05/15 07:45:37;;;;;;;6.20;3.45;;;20.50;59.60;;;;;;5016963;28;21099;-81
2022/05/15 07:48:03;;;;;;;5.90;3.17;;;20.70;59.60;;;;;;5045007;28;20547;-82
2022/05/15 07:50:29;;;;;;;8.40;3.50;;;21.00;60.40;;;;;;5063516;28;20162;-82
2022/05/15 07:52:55;;;;;;;7.13;3.50;;;21.30;61.30;;;;;;5038031;28;20039;-81
2022/05/15 07:55:21;;;;;;;6.93;3.60;;;21.70;61.80;;;;;;5062206;28;20037;-82
2022/05/15 07:57:47;;;;;;;5.90;3.30;;;22.20;60.40;;;;;;5047435;28;20162;-82
2022/05/15 08:00:14;;;;;;;5.05;3.25;;;22.60;59.70;;;;;;5025515;28;20325;-82
2022/05/15 08:02:43;;;;;;;5.88;3.22;;;22.90;58.90;;;;;;5030802;28;20396;-81
2022/05/15 08:08:02;;;;;;;4.90;3.10;;;23.60;58.00;;;;;;5058214;28;20497;-83
2022/05/15 08:10:33;;;;;;;4.97;3.22;;;24.00;58.10;;;;;;5046269;28;20032;-82
2022/05/15 08:12:59;;;;;;;5.53;3.25;;;24.40;57.80;;;;;;5055803;28;20661;-82
2022/05/15 08:15:26;;;;;;;5.40;3.50;;;24.70;57.50;;;;;;5054930;28;20116;-82
2022/05/15 08:17:53;;;;;;;5.00;3.37;;;25.00;57.40;;;;;;5027522;28;20032;-83
2022/05/15 08:25:47;;;;;;;3.47;2.83;;;26.20;57.50;;;;;;5056141;28;20029;-81
2022/05/15 08:28:14;;;;;;;6.07;3.10;;;26.80;57.30;;;;;;5029124;28;20120;-83
2022/05/15 08:30:40;;;;;;;4.93;2.93;;;27.30;56.40;;;;;;5050179;28;20036;-83
2022/05/15 08:33:08;;;;;;;3.92;2.72;;;27.80;55.80;;;;;;5045991;28;20928;-82
2022/05/15 08:35:34;;;;;;;4.75;2.95;;;28.30;54.80;;;;;;5044593;28;20074;-83
2022/05/15 08:37:59;;;;;;;4.47;2.80;;;28.70;54.00;;;;;;5056764;28;20103;-83
2022/05/15 08:40:46;;;;;;;4.30;2.60;;;29.10;53.20;;;;;;5062021;28;20042;-82
2022/05/15 08:43:12;;;;;;;3.65;2.50;;;29.60;50.30;;;;;;5025317;28;20032;-83
2022/05/15 08:45:47;;;;;;;4.07;2.40;;;30.00;51.60;;;;;;5065663;28;20043;-83
2022/05/15 08:48:13;;;;;;;4.35;2.50;;;30.40;50.00;;;;;;5053053;28;20137;-82
2022/05/15 08:50:45;;;;;;;4.32;2.50;;;30.70;50.30;;;;;;5025173;28;20028;-83
2022/05/15 08:53:27;;;;;;;4.78;2.65;;;31.00;48.80;;;;;;5057927;28;20639;-83
2022/05/15 08:55:57;;;;;;;3.70;2.47;;;31.50;47.20;;;;;;5039393;28;20044;-82
2022/05/15 08:58:55;;;;;;;3.80;2.35;;;31.70;47.10;;;;;;5049473;28;20033;-83
2022/05/15 09:01:27;;;;;;;3.47;2.05;;;32.10;44.60;;;;;;5064875;28;20052;-82
2022/05/15 09:03:53;;;;;;;3.38;2.42;;;32.30;44.80;;;;;;5036613;28;20272;-82
2022/05/15 09:06:52;;;;;;;3.38;2.63;;;32.60;45.60;;;;;;5042616;28;20043;-83
2022/05/15 09:09:23;;;;;;;3.47;2.40;;;32.90;43.50;;;;;;5048455;28;20040;-82
2022/05/15 09:12:04;;;;;;;3.65;2.22;;;33.10;44.50;;;;;;5057592;28;20144;-82
2022/05/15 09:14:38;;;;;;;3.83;2.17;;;33.40;41.60;;;;;;5049234;28;20043;-82
2022/05/15 09:17:16;;;;;;;3.50;2.55;;;33.60;42.10;;;;;;5046511;28;20225;-82
2022/05/15 09:19:43;;;;;;;3.10;2.30;;;33.80;40.80;;;;;;5053783;28;20609;-82
2022/05/15 09:22:11;;;;;;;4.77;2.23;;;34.00;41.70;;;;;;5028276;28;20032;-82
2022/05/15 09:24:41;;;;;;;3.92;2.35;;;34.20;41.10;;;;;;5049849;28;20304;-83
2022/05/15 09:27:16;;;;;;;3.80;2.28;;;34.40;40.80;;;;;;5044033;28;20696;-84
2022/05/15 09:29:43;;;;;;;3.22;2.10;;;34.60;39.20;;;;;;5028122;28;20028;-83
2022/05/15 09:32:35;;;;;;;4.63;2.25;;;34.80;39.60;;;;;;5039797;28;20128;-82
2022/05/15 09:35:01;;;;;;;2.80;2.30;;;35.00;38.40;;;;;;5033579;28;20116;-83
2022/05/15 09:40:22;;;;;;;3.45;2.30;;;35.40;36.70;;;;;;5052283;28;20111;-83
2022/05/15 09:45:56;;;;;;;2.95;1.95;;;35.70;36.10;;;;;;5049308;28;20506;-83
2022/05/15 09:49:03;;;;;;;2.83;2.03;;;35.80;34.70;;;;;;5063911;28;20218;-82
2022/05/15 09:51:52;;;;;;;3.67;2.17;;;35.90;33.70;;;;;;5030392;28;20025;-82
2022/05/15 09:54:49;;;;;;;3.03;2.30;;;36.10;35.40;;;;;;5040406;28;20044;-83
2022/05/15 09:57:27;;;;;;;2.92;2.42;;;36.30;34.10;;;;;;5047971;28;20098;-82
2022/05/15 09:59:59;;;;;;;3.50;2.20;;;36.50;33.30;;;;;;5029619;28;20405;-83
2022/05/15 10:02:44;;;;;;;2.67;2.30;;;36.60;33.40;;;;;;5048897;28;20271;-84
2022/05/15 10:05:26;;;;;;;2.38;2.05;;;36.70;31.80;;;;;;5036495;28;20457;-84
2022/05/15 10:07:59;;;;;;;3.00;2.30;;;36.80;32.80;;;;;;5045145;28;20063;-83
2022/05/15 10:10:42;;;;;;;2.78;2.22;;;36.90;33.10;;;;;;5042925;28;20377;-83
2022/05/15 10:13:14;;;;;;;3.28;2.05;;;36.90;31.90;;;;;;5040368;28;20128;-82
2022/05/15 10:15:44;;;;;;;3.17;2.00;;;37.00;32.50;;;;;;5040891;28;20066;-83
2022/05/15 10:18:22;;;;;;;2.67;2.20;;;37.00;31.10;;;;;;5043273;28;20036;-83
2022/05/15 10:20:51;;;;;;;3.10;2.40;;;37.10;30.70;;;;;;5026628;28;20043;-83
2022/05/15 10:23:42;;;;;;;2.53;1.98;;;37.20;30.90;;;;;;5072969;28;20021;-82
2022/05/15 10:26:18;;;;;;;2.92;2.13;;;37.20;30.10;;;;;;5042426;28;20025;-84
2022/05/15 10:29:08;;;;;;;2.73;1.73;;;37.20;29.70;;;;;;5075707;28;20226;-83
2022/05/15 10:32:01;;;;;;;2.92;2.05;;;37.40;30.40;;;;;;5035892;28;20150;-83
2022/05/15 10:34:29;;;;;;;2.72;1.75;;;37.50;29.40;;;;;;5067250;28;20355;-83
2022/05/15 10:36:57;;;;;;;2.72;1.80;;;37.60;30.30;;;;;;5032110;28;20523;-84
2022/05/15 10:39:28;;;;;;;2.65;1.77;;;37.70;30.00;;;;;;5025894;28;20515;-82
2022/05/15 10:42:13;;;;;;;2.73;1.93;;;37.80;29.40;;;;;;5057508;28;20241;-83
2022/05/15 10:44:59;;;;;;;2.65;1.90;;;38.00;29.00;;;;;;5060883;28;20039;-83
2022/05/15 10:47:35;;;;;;;2.95;2.17;;;38.20;29.20;;;;;;5047738;28;20399;-83
2022/05/15 10:50:24;;;;;;;2.30;2.10;;;38.30;28.80;;;;;;5041753;28;20037;-82
2022/05/15 10:59:42;;;;;;;2.33;1.92;;;38.80;27.50;;;;;;5063566;28;20032;-84
2022/05/15 11:02:29;;;;;;;3.55;1.92;;;38.80;27.10;;;;;;5047909;28;20036;-82
2022/05/15 11:04:57;;;;;;;2.25;1.58;;;38.80;27.40;;;;;;5054739;28;20847;-84
2022/05/15 11:07:42;;;;;;;2.78;1.70;;;38.80;27.70;;;;;;5023354;28;20124;-84
2022/05/15 11:10:50;;;;;;;2.63;2.00;;;38.80;26.70;;;;;;5061392;28;20042;-84
2022/05/15 11:13:42;;;;;;;2.80;2.05;;;38.90;26.80;;;;;;5074213;28;20158;-83
2022/05/15 11:16:49;;;;;;;2.22;2.03;;;38.80;26.10;;;;;;5048124;28;20105;-82
2022/05/15 11:19:30;;;;;;;2.33;1.70;;;38.80;26.30;;;;;;5050956;28;20032;-84
2022/05/15 11:22:18;;;;;;;3.13;2.00;;;38.80;26.00;;;;;;5037588;28;20477;-84
2022/05/15 11:24:46;;;;;;;2.23;2.00;;;38.80;26.50;;;;;;5055079;28;20707;-84
2022/05/15 11:27:24;;;;;;;2.38;1.80;;;38.80;26.70;;;;;;5019930;28;20489;-83
2022/05/15 11:29:52;;;;;;;2.70;1.98;;;38.90;26.40;;;;;;5039018;28;20097;-83
2022/05/15 11:32:31;;;;;;;2.63;1.90;;;39.00;26.40;;;;;;5045125;28;20383;-83
2022/05/15 11:35:24;;;;;;;2.30;1.80;;;39.10;24.40;;;;;;5058329;28;20037;-83
2022/05/15 11:37:58;;;;;;;3.63;2.00;;;39.20;25.70;;;;;;5021420;28;20028;-84
2022/05/15 11:40:40;;;;;;;2.25;1.83;;;39.30;26.30;;;;;;5056629;28;20052;-85
2022/05/15 11:43:31;;;;;;;2.10;1.60;;;39.50;25.60;;;;;;5039225;28;20033;-84
2022/05/15 11:46:08;;;;;;;2.05;1.92;;;39.60;25.20;;;;;;5041522;28;20037;-83
2022/05/15 11:48:43;;;;;;;2.50;1.92;;;39.70;25.60;;;;;;5023063;28;20236;-83
2022/05/15 11:51:14;;;;;;;2.30;1.70;;;39.80;25.20;;;;;;5053944;28;20038;-83
2022/05/15 11:54:08;;;;;;;3.05;2.00;;;39.90;25.00;;;;;;5048122;28;20433;-84
2022/05/15 11:56:53;;;;;;;2.35;1.92;;;40.00;25.50;;;;;;5039736;28;20240;-83
2022/05/15 11:59:34;;;;;;;2.17;1.80;;;40.10;25.20;;;;;;5055911;28;20588;-85
2022/05/15 12:02:21;;;;;;;2.58;2.10;;;40.20;24.70;;;;;;5036563;28;20029;-82
2022/05/15 12:04:54;;;;;;;2.83;1.70;;;40.40;25.10;;;;;;5033961;28;20033;-84
2022/05/15 12:07:30;;;;;;;2.53;1.70;;;40.40;25.00;;;;;;5034517;28;20029;-83
2022/05/15 12:09:56;;;;;;;2.33;2.08;;;40.50;24.00;;;;;;5042121;28;20060;-85
2022/05/15 12:12:24;;;;;;;3.03;1.90;;;40.50;24.40;;;;;;5044313;28;20032;-84
2022/05/15 12:15:27;;;;;;;3.03;1.88;;;40.50;24.40;;;;;;5049088;28;20440;-85
2022/05/15 12:17:57;;;;;;;2.72;1.55;;;40.40;23.50;;;;;;5042780;28;20029;-85
2022/05/15 12:20:28;;;;;;;3.85;2.00;;;40.30;24.00;;;;;;5039453;28;20127;-84
2022/05/15 12:23:00;;;;;;;2.88;1.70;;;40.20;23.70;;;;;;5061390;28;20033;-83
2022/05/15 12:25:31;;;;;;;1.67;1.50;;;40.10;23.30;;;;;;5052480;28;20308;-83
2022/05/15 12:28:52;;;;;;;2.40;1.42;;;40.00;23.80;;;;;;5026198;28;20032;-83
2022/05/15 12:31:29;;;;;;;2.25;1.60;;;39.90;22.90;;;;;;5051398;28;20052;-84
2022/05/15 12:34:03;;;;;;;3.92;2.00;;;39.80;23.30;;;;;;5041782;28;20037;-83
2022/05/15 12:36:36;;;;;;;2.35;1.90;;;39.80;23.70;;;;;;5052360;28;20036;-82
2022/05/15 12:39:03;;;;;;;2.23;1.67;;;39.90;23.30;;;;;;5042497;28;20039;-83
2022/05/15 12:41:41;;;;;;;2.17;1.40;;;39.90;23.70;;;;;;5005001;28;20230;-83
2022/05/15 12:44:10;;;;;;;2.35;1.65;;;39.90;23.40;;;;;;5030488;28;20037;-82
2022/05/15 12:46:40;;;;;;;2.40;1.30;;;39.90;23.30;;;;;;5071559;28;20292;-82
2022/05/15 12:49:08;;;;;;;2.78;1.80;;;39.90;23.10;;;;;;5041010;28;20130;-84
2022/05/15 12:51:36;;;;;;;2.67;1.60;;;39.90;23.30;;;;;;5051266;28;20107;-82
2022/05/15 12:54:19;;;;;;;2.05;1.60;;;39.80;22.80;;;;;;5057593;28;20108;-84
2022/05/15 12:56:44;;;;;;;1.73;1.63;;;39.70;22.80;;;;;;5034965;28;20091;-84
2022/05/15 12:59:18;;;;;;;1.75;1.40;;;39.50;23.00;;;;;;5040603;28;20467;-83
2022/05/15 13:01:44;;;;;;;1.93;1.40;;;39.50;22.70;;;;;;5063525;28;20149;-83
2022/05/15 13:04:17;;;;;;;1.80;1.50;;;39.40;22.80;;;;;;5056049;28;20059;-85
2022/05/15 13:06:52;;;;;;;1.92;1.60;;;39.30;22.50;;;;;;5040151;28;20028;-82
2022/05/15 13:09:24;;;;;;;2.22;1.90;;;39.30;22.50;;;;;;5060614;28;20032;-83
2022/05/15 13:11:54;;;;;;;1.75;1.42;;;39.20;22.70;;;;;;5049381;28;20083;-83
2022/05/15 13:14:27;;;;;;;2.87;1.80;;;39.10;22.80;;;;;;5023330;28;20029;-84
2022/05/15 13:16:53;;;;;;;2.67;1.30;;;39.00;22.40;;;;;;5046360;28;20390;-84
2022/05/15 13:19:28;;;;;;;2.97;1.60;;;38.90;22.90;;;;;;5051664;28;20036;-82
2022/05/15 13:21:54;;;;;;;2.35;1.33;;;38.80;22.70;;;;;;5055499;28;20044;-83
2022/05/15 13:24:22;;;;;;;1.48;1.33;;;38.70;22.90;;;;;;5058884;28;20024;-84
2022/05/15 13:26:49;;;;;;;2.00;1.60;;;38.60;23.10;;;;;;5040272;28;20470;-83
2022/05/15 13:29:18;;;;;;;3.13;1.85;;;38.60;23.30;;;;;;5024153;28;20040;-83
2022/05/15 13:31:47;;;;;;;3.30;1.95;;;38.60;23.40;;;;;;5053302;28;20232;-84